Terminal Aerodrome Forecast
Issued by NWS

Home | Current Version | Previous Version | Text Only | Print | Product List | Glossary On
Versions: 1 2 3 4 5 6 7 8 9 10 11 12 13
883
FTPA31 PHFO 301459 AAA
TAFHLI
TAF AMD
PHLI 301459Z 3015/3112 05015KT P6SM VCSH BKN025 BKN045
      TEMPO 3015/3019 SCT025 BKN045
     FM301900 05015KT P6SM VCSH SCT025 BKN045=

USA.gov is the U.S. government's official web portal to all federal, state and local government web resources and services.